createdAt,value
2023-01-10T00:01:32.954Z,5.39
2023-01-10T00:02:33.000Z,5.42
2023-01-10T00:03:33.043Z,5.48
2023-01-10T00:05:32.967Z,5.56
2023-01-10T00:06:32.966Z,5.55
2023-01-10T00:08:32.987Z,5.56
2023-01-10T00:09:33.010Z,5.52
2023-01-10T00:10:32.982Z,5.53
2023-01-10T00:11:33.044Z,5.54
2023-01-10T00:12:33.014Z,5.56
2023-01-10T00:13:33.047Z,5.57
2023-01-10T00:14:33.033Z,5.51
2023-01-10T00:17:33.030Z,5.52
2023-01-10T00:18:33.012Z,5.54
2023-01-10T00:19:33.080Z,5.55
2023-01-10T00:20:32.998Z,5.54
2023-01-10T00:21:33.040Z,5.49
2023-01-10T00:22:33.021Z,5.47
2023-01-10T00:23:33.067Z,5.49
2023-01-10T00:25:33.045Z,5.54
2023-01-10T00:26:33.066Z,5.59
2023-01-10T00:27:33.071Z,5.56
2023-01-10T00:28:33.058Z,5.59
2023-01-10T00:29:33.075Z,5.57
2023-01-10T00:30:33.036Z,5.59
2023-01-10T00:31:33.163Z,5.56
2023-01-10T00:32:33.119Z,5.60
2023-01-10T00:33:33.076Z,5.64
2023-01-10T00:34:33.098Z,5.69
2023-01-10T00:35:33.078Z,5.74
2023-01-10T00:37:33.123Z,5.72
2023-01-10T00:38:33.098Z,5.74
2023-01-10T00:39:33.072Z,5.73
2023-01-10T00:40:33.120Z,5.75
2023-01-10T00:41:33.095Z,5.80
2023-01-10T00:42:33.101Z,5.85
2023-01-10T00:43:33.091Z,5.70
2023-01-10T00:45:33.150Z,5.71
2023-01-10T00:46:33.212Z,5.75
2023-01-10T00:47:33.079Z,5.80
2023-01-10T00:48:33.095Z,5.81
2023-01-10T00:49:33.093Z,5.84
2023-01-10T00:51:33.113Z,5.81
2023-01-10T00:52:33.111Z,5.80
2023-01-10T00:53:33.170Z,5.82
2023-01-10T00:54:33.113Z,5.85
2023-01-10T00:55:33.130Z,5.82
2023-01-10T00:57:33.085Z,5.81
2023-01-10T00:58:33.166Z,5.80
2023-01-10T00:59:33.152Z,5.82
2023-01-10T01:00:33.091Z,5.84
2023-01-10T01:01:33.273Z,5.81
2023-01-10T01:02:33.186Z,5.82
2023-01-10T01:03:33.143Z,5.88
2023-01-10T01:04:33.145Z,5.92
2023-01-10T01:05:33.168Z,5.89
2023-01-10T01:06:33.197Z,5.86
2023-01-10T01:07:33.154Z,5.81
2023-01-10T01:08:33.175Z,5.84
2023-01-10T01:09:33.158Z,5.86
2023-01-10T01:11:33.209Z,5.92
2023-01-10T01:12:33.164Z,5.96
2023-01-10T01:13:33.166Z,5.97
2023-01-10T01:14:33.202Z,5.88
2023-01-10T01:15:33.225Z,5.73
2023-01-10T01:16:33.198Z,5.69
2023-01-10T01:17:33.182Z,5.76
2023-01-10T01:18:33.171Z,5.84
2023-01-10T01:19:33.225Z,5.90
2023-01-10T01:20:33.147Z,5.93
2023-01-10T01:21:33.187Z,5.95
2023-01-10T01:22:33.218Z,6.03
2023-01-10T01:23:33.144Z,6.00
2023-01-10T01:24:33.199Z,6.04
2023-01-10T01:25:33.159Z,6.03
2023-01-10T01:26:33.223Z,6.02
2023-01-10T01:27:33.217Z,6.06
2023-01-10T01:28:33.166Z,6.03
2023-01-10T01:29:42.952Z,6.04
2023-01-10T01:30:33.210Z,6.09
2023-01-10T01:32:33.214Z,6.02
2023-01-10T01:33:33.220Z,5.94
2023-01-10T01:34:33.219Z,5.91
2023-01-10T01:35:33.282Z,5.93
2023-01-10T01:36:33.199Z,5.87
2023-01-10T01:37:33.229Z,5.90
2023-01-10T01:39:33.272Z,5.91
2023-01-10T01:40:33.241Z,5.89
2023-01-10T01:42:33.226Z,5.88
2023-01-10T01:43:33.262Z,5.83
2023-01-10T01:44:33.211Z,5.71
2023-01-10T01:45:33.247Z,5.61
2023-01-10T01:46:33.297Z,5.55
2023-01-10T01:47:33.210Z,5.46
2023-01-10T01:48:33.282Z,5.50
2023-01-10T01:49:33.252Z,5.45
2023-01-10T01:50:33.287Z,5.49
2023-01-10T01:51:33.272Z,5.42
2023-01-10T01:52:33.269Z,5.45
2023-01-10T01:53:33.247Z,5.44
2023-01-10T01:54:33.261Z,5.47
2023-01-10T01:55:33.254Z,5.50
2023-01-10T01:56:33.328Z,5.45
2023-01-10T01:57:33.240Z,5.47
2023-01-10T01:58:33.283Z,5.40
2023-01-10T01:59:33.285Z,5.41
2023-01-10T02:01:33.436Z,5.36
2023-01-10T02:03:33.332Z,5.31
2023-01-10T02:04:33.291Z,5.36
2023-01-10T02:05:33.320Z,5.38
2023-01-10T02:06:33.295Z,5.36
2023-01-10T02:07:33.297Z,5.43
2023-01-10T02:08:33.266Z,5.46
2023-01-10T02:09:33.306Z,5.56
2023-01-10T02:10:33.297Z,5.63
2023-01-10T02:11:33.273Z,5.70
2023-01-10T02:12:33.267Z,5.73
2023-01-10T02:14:33.317Z,5.70
2023-01-10T02:15:33.345Z,5.73
2023-01-10T02:16:33.314Z,5.69
2023-01-10T02:18:33.316Z,5.68
2023-01-10T02:19:33.329Z,5.65
2023-01-10T02:20:33.288Z,5.60
2023-01-10T02:21:33.359Z,5.62
2023-01-10T02:22:33.337Z,5.66
2023-01-10T02:23:33.334Z,5.68
2023-01-10T02:24:33.350Z,5.73
2023-01-10T02:25:33.295Z,5.78
2023-01-10T02:26:33.357Z,5.80
2023-01-10T02:28:33.324Z,5.76
2023-01-10T02:29:33.360Z,5.73
2023-01-10T02:30:33.387Z,5.72
2023-01-10T02:31:33.356Z,5.71
2023-01-10T02:32:43.871Z,5.69
2023-01-10T02:33:33.358Z,5.70
2023-01-10T02:34:33.351Z,5.73
2023-01-10T02:35:33.327Z,5.81
2023-01-10T02:36:33.369Z,5.80
2023-01-10T02:37:33.385Z,5.79
2023-01-10T02:38:33.404Z,5.78
2023-01-10T02:39:33.394Z,5.82
2023-01-10T02:40:33.393Z,5.83
2023-01-10T02:41:33.357Z,5.84
2023-01-10T02:42:33.349Z,5.86
2023-01-10T02:43:33.381Z,5.95
2023-01-10T02:44:33.377Z,6.04
2023-01-10T02:45:33.414Z,6.10
2023-01-10T02:46:33.514Z,6.12
2023-01-10T02:47:33.387Z,6.18
2023-01-10T02:48:33.402Z,6.21
2023-01-10T02:49:33.407Z,6.20
2023-01-10T02:50:33.402Z,6.16
2023-01-10T02:51:33.523Z,6.18
2023-01-10T02:52:33.372Z,6.20
2023-01-10T02:53:33.369Z,6.22
2023-01-10T02:54:33.372Z,6.25
2023-01-10T02:55:33.424Z,6.24
2023-01-10T02:56:33.437Z,6.19
2023-01-10T02:57:33.427Z,6.16
2023-01-10T02:58:33.407Z,6.10
2023-01-10T02:59:33.415Z,6.03
2023-01-10T03:00:33.401Z,6.01
2023-01-10T03:01:33.468Z,6.02
2023-01-10T03:02:33.446Z,6.03
2023-01-10T03:03:33.477Z,6.07
2023-01-10T03:04:33.512Z,6.12
2023-01-10T03:05:33.442Z,6.16
2023-01-10T03:06:33.402Z,6.18
2023-01-10T03:08:33.422Z,6.22
2023-01-10T03:09:34.399Z,6.26
2023-01-10T03:10:33.451Z,6.20
2023-01-10T03:11:33.415Z,6.21
2023-01-10T03:12:33.467Z,6.16
2023-01-10T03:13:33.449Z,6.19
2023-01-10T03:14:33.419Z,6.08
2023-01-10T03:15:33.483Z,5.95
2023-01-10T03:16:33.423Z,5.91
2023-01-10T03:18:33.435Z,5.89
2023-01-10T03:19:33.444Z,5.88
2023-01-10T03:20:33.518Z,5.93
2023-01-10T03:21:33.480Z,5.96
2023-01-10T03:22:33.473Z,5.90
2023-01-10T03:23:33.442Z,5.88
2023-01-10T03:25:33.491Z,5.82
2023-01-10T03:26:33.454Z,5.63
2023-01-10T03:27:33.464Z,5.58
2023-01-10T03:28:33.463Z,5.57
2023-01-10T03:29:33.454Z,5.56
2023-01-10T03:30:33.455Z,5.54
2023-01-10T03:31:33.552Z,5.56
2023-01-10T03:32:33.463Z,5.61
2023-01-10T03:34:33.509Z,5.50
2023-01-10T03:36:33.464Z,5.51
2023-01-10T03:37:33.491Z,5.54
2023-01-10T03:38:33.493Z,5.58
2023-01-10T03:39:33.513Z,5.63
2023-01-10T03:40:33.536Z,5.69
2023-01-10T03:41:33.566Z,5.75
2023-01-10T03:42:33.477Z,5.79
2023-01-10T03:43:33.540Z,5.82
2023-01-10T03:44:33.489Z,5.87
2023-01-10T03:45:33.535Z,5.94
2023-01-10T03:46:33.676Z,5.92
2023-01-10T03:47:33.654Z,5.93
2023-01-10T03:48:33.503Z,5.91
2023-01-10T03:49:33.515Z,5.93
2023-01-10T03:50:33.506Z,5.94
2023-01-10T03:51:33.519Z,5.98
2023-01-10T03:52:33.518Z,6.05
2023-01-10T03:53:33.557Z,6.07
2023-01-10T03:54:33.589Z,6.08
2023-01-10T03:55:33.569Z,6.12
2023-01-10T03:56:33.549Z,6.14
2023-01-10T03:57:33.565Z,6.12
2023-01-10T03:58:33.542Z,6.10
2023-01-10T03:59:33.524Z,6.06
2023-01-10T04:00:33.565Z,6.02
2023-01-10T04:01:33.660Z,5.97
2023-01-10T04:02:33.612Z,6.01
2023-01-10T04:03:33.574Z,6.00
2023-01-10T04:04:33.582Z,5.97
2023-01-10T04:05:33.611Z,5.95
2023-01-10T04:06:33.575Z,5.94
2023-01-10T04:07:33.584Z,5.87
2023-01-10T04:08:33.594Z,5.88
2023-01-10T04:09:33.584Z,5.85
2023-01-10T04:10:33.603Z,5.89
2023-01-10T04:11:33.614Z,5.87
2023-01-10T04:12:33.614Z,5.84
2023-01-10T04:15:33.634Z,5.83
2023-01-10T04:16:33.645Z,5.77
2023-01-10T04:19:33.601Z,5.74
2023-01-10T04:20:33.624Z,5.71
2023-01-10T04:21:33.621Z,5.69
2023-01-10T04:22:33.587Z,5.63
2023-01-10T04:23:33.614Z,5.59
2023-01-10T04:24:33.602Z,5.60
2023-01-10T04:25:33.634Z,5.51
2023-01-10T04:26:33.634Z,5.53
2023-01-10T04:27:33.644Z,5.56
2023-01-10T04:28:33.696Z,5.59
2023-01-10T04:29:33.601Z,5.63
2023-01-10T04:30:33.657Z,5.61
2023-01-10T04:31:33.706Z,5.63
2023-01-10T04:32:33.644Z,5.64
2023-01-10T04:33:33.651Z,5.69
2023-01-10T04:34:33.648Z,5.72
2023-01-10T04:35:33.673Z,5.66
2023-01-10T04:36:33.644Z,5.67
2023-01-10T04:37:33.659Z,5.68
2023-01-10T04:38:33.664Z,5.70
2023-01-10T04:39:33.671Z,5.72
2023-01-10T04:40:33.665Z,5.76
2023-01-10T04:41:33.673Z,5.77
2023-01-10T04:42:33.664Z,5.78
2023-01-10T04:43:33.679Z,5.81
2023-01-10T04:44:33.676Z,5.84
2023-01-10T04:45:33.678Z,5.83
2023-01-10T04:46:33.851Z,5.78
2023-01-10T04:48:33.698Z,5.80
2023-01-10T04:49:33.715Z,5.74
2023-01-10T04:50:33.679Z,5.70
2023-01-10T04:52:33.671Z,5.75
2023-01-10T04:53:33.667Z,5.81
2023-01-10T04:54:33.667Z,5.87
2023-01-10T04:55:33.696Z,5.91
2023-01-10T04:57:33.719Z,5.92
2023-01-10T04:59:33.671Z,5.93
2023-01-10T05:00:33.689Z,5.96
2023-01-10T05:01:33.725Z,6.03
2023-01-10T05:02:33.881Z,6.07
2023-01-10T05:03:33.741Z,6.03
2023-01-10T05:04:33.723Z,6.09
2023-01-10T05:05:33.781Z,6.01
2023-01-10T05:06:33.691Z,5.95
2023-01-10T05:07:33.700Z,5.93
2023-01-10T05:08:33.729Z,5.95
2023-01-10T05:09:33.756Z,5.90
2023-01-10T05:10:33.768Z,5.86
2023-01-10T05:11:33.698Z,5.80
2023-01-10T05:12:33.702Z,5.79
2023-01-10T05:13:33.697Z,5.83
2023-01-10T05:14:33.738Z,5.88
2023-01-10T05:15:33.798Z,5.94
2023-01-10T05:16:33.792Z,5.99
2023-01-10T05:17:33.710Z,6.00
2023-01-10T05:18:33.756Z,5.93
2023-01-10T05:19:33.733Z,5.85
2023-01-10T05:20:33.747Z,5.84
2023-01-10T05:21:33.766Z,5.79
2023-01-10T05:22:33.771Z,5.56
2023-01-10T05:23:33.777Z,5.50
2023-01-10T05:24:33.723Z,5.51
2023-01-10T05:25:33.866Z,5.57
2023-01-10T05:26:33.741Z,5.65
2023-01-10T05:27:33.752Z,5.70
2023-01-10T05:28:33.743Z,5.69
2023-01-10T05:29:33.788Z,5.62
2023-01-10T05:31:33.891Z,5.65
2023-01-10T05:32:33.798Z,5.72
2023-01-10T05:33:33.762Z,5.75
2023-01-10T05:34:33.769Z,5.81
2023-01-10T05:35:33.769Z,5.84
2023-01-10T05:36:33.773Z,5.81
2023-01-10T05:37:33.820Z,5.83
2023-01-10T05:38:33.822Z,5.84
2023-01-10T05:39:33.846Z,5.82
2023-01-10T05:40:33.825Z,5.77
2023-01-10T05:41:33.831Z,5.79
2023-01-10T05:42:33.824Z,5.82
2023-01-10T05:43:33.832Z,5.90
2023-01-10T05:44:33.875Z,5.98
2023-01-10T05:45:33.949Z,6.04
2023-01-10T05:46:33.810Z,6.09
2023-01-10T05:47:33.823Z,6.12
2023-01-10T05:48:33.914Z,6.11
2023-01-10T05:49:34.359Z,6.12
2023-01-10T05:51:33.826Z,5.97
2023-01-10T05:52:33.839Z,5.89
2023-01-10T05:54:33.866Z,5.84
2023-01-10T05:55:33.847Z,5.86
2023-01-10T05:56:33.857Z,5.83
2023-01-10T05:57:33.825Z,5.79
2023-01-10T05:58:33.860Z,5.77
2023-01-10T06:00:33.918Z,5.75
2023-01-10T06:01:33.951Z,5.73
2023-01-10T06:02:33.999Z,5.69
2023-01-10T06:03:33.828Z,5.67
2023-01-10T06:04:33.867Z,5.60
2023-01-10T06:05:33.881Z,5.56
2023-01-10T06:06:33.873Z,5.54
2023-01-10T06:07:33.862Z,5.39
2023-01-10T06:08:33.875Z,5.32
2023-01-10T06:10:33.897Z,5.36
2023-01-10T06:11:33.904Z,5.43
2023-01-10T06:12:33.899Z,5.38
2023-01-10T06:13:33.921Z,5.34
2023-01-10T06:14:33.892Z,5.30
2023-01-10T06:15:33.897Z,5.28
2023-01-10T06:16:33.882Z,5.30
2023-01-10T06:17:33.892Z,5.28
2023-01-10T06:18:33.905Z,5.34
2023-01-10T06:19:33.878Z,5.37
2023-01-10T06:20:33.914Z,5.41
2023-01-10T06:21:33.958Z,5.44
2023-01-10T06:22:33.912Z,5.46
2023-01-10T06:23:33.880Z,5.45
2023-01-10T06:25:33.926Z,5.50
2023-01-10T06:26:33.917Z,5.53
2023-01-10T06:27:33.912Z,5.58
2023-01-10T06:28:33.915Z,5.61
2023-01-10T06:30:33.879Z,5.63
2023-01-10T06:31:34.037Z,5.66
2023-01-10T06:32:33.932Z,5.63
2023-01-10T06:33:33.953Z,5.56
2023-01-10T06:34:33.993Z,5.58
2023-01-10T06:37:33.946Z,5.48
2023-01-10T06:38:33.958Z,5.41
2023-01-10T06:39:34.047Z,5.25
2023-01-10T06:40:33.950Z,5.26
2023-01-10T06:41:33.908Z,5.31
2023-01-10T06:42:33.994Z,5.37
2023-01-10T06:43:33.962Z,5.38
2023-01-10T06:44:33.927Z,5.41
2023-01-10T06:45:33.943Z,5.44
2023-01-10T06:46:33.969Z,5.47
2023-01-10T06:47:33.967Z,5.45
2023-01-10T06:48:33.940Z,5.47
2023-01-10T06:49:33.960Z,5.50
2023-01-10T06:50:33.972Z,5.48
2023-01-10T06:51:33.963Z,5.49
2023-01-10T06:52:33.944Z,5.53
2023-01-10T06:53:33.983Z,5.60
2023-01-10T06:54:33.987Z,5.67
2023-01-10T06:55:33.996Z,5.76
2023-01-10T06:56:34.135Z,5.86
2023-01-10T06:57:33.995Z,5.93
2023-01-10T06:58:33.961Z,5.95
2023-01-10T06:59:33.986Z,5.97
2023-01-10T07:00:34.087Z,5.99
2023-01-10T07:01:34.069Z,5.89
2023-01-10T07:02:34.024Z,5.83
2023-01-10T07:03:34.098Z,5.77
2023-01-10T07:04:34.003Z,5.58
2023-01-10T07:05:34.023Z,5.60
2023-01-10T07:06:33.989Z,5.64
2023-01-10T07:07:34.000Z,5.56
2023-01-10T07:08:34.109Z,5.55
2023-01-10T07:09:33.990Z,5.58
2023-01-10T07:10:33.990Z,5.57
2023-01-10T07:11:34.016Z,5.59
2023-01-10T07:13:34.019Z,5.63
2023-01-10T07:14:34.069Z,5.67
2023-01-10T07:15:34.017Z,5.70
2023-01-10T07:18:34.042Z,5.72
2023-01-10T07:19:34.013Z,5.71
2023-01-10T07:20:34.014Z,5.73
2023-01-10T07:21:34.050Z,5.75
2023-01-10T07:22:34.007Z,5.80
2023-01-10T07:23:34.010Z,5.87
2023-01-10T07:24:34.051Z,5.89
2023-01-10T07:25:34.045Z,5.93
2023-01-10T07:26:34.054Z,5.97
2023-01-10T07:27:34.077Z,6.00
2023-01-10T07:28:34.029Z,6.02
2023-01-10T07:29:34.090Z,6.05
2023-01-10T07:30:34.089Z,6.10
2023-01-10T07:31:34.255Z,6.12
2023-01-10T07:32:34.075Z,6.18
2023-01-10T07:33:34.047Z,6.24
2023-01-10T07:34:34.072Z,6.25
2023-01-10T07:35:34.063Z,6.28
2023-01-10T07:36:34.044Z,6.27
2023-01-10T07:37:34.157Z,6.30
2023-01-10T07:38:34.056Z,6.28
2023-01-10T07:40:34.067Z,6.31
2023-01-10T07:41:34.059Z,6.33
2023-01-10T07:44:34.402Z,6.32
2023-01-10T07:45:34.109Z,6.34
2023-01-10T07:46:34.140Z,6.36
2023-01-10T07:47:34.115Z,6.35
2023-01-10T07:48:34.086Z,6.30
2023-01-10T07:50:34.284Z,6.31
2023-01-10T07:51:34.083Z,6.30
2023-01-10T07:52:34.120Z,6.24
2023-01-10T07:53:34.089Z,6.20
2023-01-10T07:54:34.095Z,6.19
2023-01-10T07:55:34.191Z,6.21
2023-01-10T07:56:34.102Z,6.23
2023-01-10T07:57:34.096Z,6.25
2023-01-10T07:58:34.159Z,6.15
2023-01-10T07:59:34.110Z,6.11
2023-01-10T08:02:34.202Z,6.12
2023-01-10T08:03:34.392Z,6.09
2023-01-10T08:04:34.127Z,6.07
2023-01-10T08:05:34.139Z,6.06
2023-01-10T08:07:34.125Z,6.01
2023-01-10T08:08:34.112Z,5.97
2023-01-10T08:09:34.175Z,5.99
2023-01-10T08:10:34.163Z,6.02
2023-01-10T08:11:34.197Z,6.04
2023-01-10T08:12:34.155Z,6.08
2023-01-10T08:13:34.183Z,6.17
2023-01-10T08:14:34.218Z,6.24
2023-01-10T08:15:34.165Z,6.30
2023-01-10T08:16:34.251Z,6.25
2023-01-10T08:17:34.161Z,6.24
2023-01-10T08:18:34.195Z,6.28
2023-01-10T08:19:34.201Z,6.32
2023-01-10T08:20:34.207Z,6.34
2023-01-10T08:21:34.202Z,6.36
2023-01-10T08:22:34.198Z,6.39
2023-01-10T08:23:34.165Z,6.42
2023-01-10T08:24:34.235Z,6.45
2023-01-10T08:25:34.175Z,6.51
2023-01-10T08:26:34.224Z,6.52
2023-01-10T08:27:34.190Z,6.53
2023-01-10T08:29:34.223Z,6.51
2023-01-10T08:30:34.172Z,6.50
2023-01-10T08:31:34.352Z,6.52
2023-01-10T08:32:34.251Z,6.55
2023-01-10T08:33:34.214Z,6.54
2023-01-10T08:34:34.186Z,6.41
2023-01-10T08:35:34.213Z,6.31
2023-01-10T08:36:34.251Z,6.36
2023-01-10T08:37:34.269Z,6.44
2023-01-10T08:38:34.249Z,6.48
2023-01-10T08:39:34.188Z,6.55
2023-01-10T08:40:34.214Z,6.57
2023-01-10T08:42:34.265Z,6.60
2023-01-10T08:43:34.200Z,6.64
2023-01-10T08:44:34.264Z,6.73
2023-01-10T08:45:34.258Z,6.82
2023-01-10T08:46:34.264Z,6.87
2023-01-10T08:47:34.218Z,6.93
2023-01-10T08:49:34.261Z,6.96
2023-01-10T08:50:34.275Z,7.01
2023-01-10T08:51:34.276Z,7.10
2023-01-10T08:52:34.242Z,7.19
2023-01-10T08:53:34.280Z,7.20
2023-01-10T08:54:34.244Z,7.27
2023-01-10T08:55:34.311Z,7.36
2023-01-10T08:56:34.248Z,7.41
2023-01-10T08:57:34.292Z,7.46
2023-01-10T08:58:34.344Z,7.55
2023-01-10T08:59:34.302Z,7.64
2023-01-10T09:00:34.253Z,7.71
2023-01-10T09:01:34.499Z,7.81
2023-01-10T09:02:34.346Z,7.92
2023-01-10T09:03:34.269Z,8.08
2023-01-10T09:04:34.316Z,8.23
2023-01-10T09:05:34.275Z,8.91
2023-01-10T09:06:34.300Z,9.39
2023-01-10T09:07:34.346Z,9.55
2023-01-10T09:08:34.313Z,10.50
2023-01-10T09:09:34.294Z,11.21
2023-01-10T09:10:34.310Z,11.48
2023-01-10T09:11:34.274Z,12.29
2023-01-10T09:12:34.321Z,13.43
2023-01-10T09:13:34.391Z,14.27
2023-01-10T09:14:34.333Z,14.03
2023-01-10T09:15:34.294Z,13.64
2023-01-10T09:16:34.332Z,13.50
2023-01-10T09:17:34.289Z,13.76
2023-01-10T09:18:34.348Z,14.21
2023-01-10T09:19:34.383Z,14.41
2023-01-10T09:20:34.355Z,15.45
2023-01-10T09:21:34.372Z,16.66
2023-01-10T09:22:34.386Z,17.96
2023-01-10T09:23:36.153Z,18.87
2023-01-10T09:24:34.315Z,19.91
2023-01-10T09:25:34.393Z,20.84
2023-01-10T09:26:34.362Z,21.65
2023-01-10T09:27:34.358Z,21.88
2023-01-10T09:28:34.365Z,21.67
2023-01-10T09:29:34.330Z,20.62
2023-01-10T09:30:34.330Z,19.56
2023-01-10T09:31:34.488Z,18.49
2023-01-10T09:32:34.384Z,17.63
2023-01-10T09:33:45.850Z,17.17
2023-01-10T09:34:34.400Z,17.93
2023-01-10T09:35:34.446Z,18.53
2023-01-10T09:36:34.345Z,18.51
2023-01-10T09:37:34.586Z,18.24
2023-01-10T09:38:34.378Z,17.51
2023-01-10T09:39:34.346Z,16.74
2023-01-10T09:40:34.437Z,15.94
2023-01-10T09:41:34.424Z,15.24
2023-01-10T09:42:34.358Z,14.59
2023-01-10T09:43:34.403Z,14.04
2023-01-10T09:44:34.367Z,13.54
2023-01-10T09:45:34.371Z,13.07
2023-01-10T09:46:34.466Z,12.69
2023-01-10T09:47:34.440Z,12.25
2023-01-10T09:48:34.469Z,11.72
2023-01-10T09:49:34.371Z,11.40
2023-01-10T09:50:34.393Z,11.18
2023-01-10T09:51:35.504Z,11.01
2023-01-10T09:52:34.433Z,10.90
2023-01-10T09:53:34.522Z,10.80
2023-01-10T09:54:34.422Z,10.75
2023-01-10T09:55:34.399Z,10.70
2023-01-10T09:56:34.471Z,10.65
2023-01-10T09:57:34.407Z,10.82
2023-01-10T09:58:34.438Z,11.42
2023-01-10T09:59:34.411Z,11.32
2023-01-10T10:00:34.400Z,11.23
2023-01-10T10:01:34.485Z,11.13
2023-01-10T10:02:34.400Z,11.04
2023-01-10T10:03:34.489Z,11.00
2023-01-10T10:04:34.474Z,10.94
2023-01-10T10:05:34.430Z,11.03
2023-01-10T10:06:34.475Z,10.99
2023-01-10T10:07:34.444Z,10.90
2023-01-10T10:08:34.460Z,10.81
2023-01-10T10:09:34.484Z,10.70
2023-01-10T10:10:34.454Z,10.61
2023-01-10T10:11:34.510Z,10.55
2023-01-10T10:12:34.443Z,11.05
2023-01-10T10:13:34.436Z,11.08
2023-01-10T10:14:34.473Z,10.94
2023-01-10T10:15:34.434Z,10.98
2023-01-10T10:16:34.473Z,11.05
2023-01-10T10:17:34.567Z,10.95
2023-01-10T10:18:34.495Z,11.00
2023-01-10T10:19:34.480Z,11.14
2023-01-10T10:20:34.492Z,11.01
2023-01-10T10:22:34.530Z,10.93
2023-01-10T10:23:34.681Z,10.92
2023-01-10T10:24:34.508Z,11.00
2023-01-10T10:25:34.469Z,11.08
2023-01-10T10:26:34.471Z,11.18
2023-01-10T10:27:34.507Z,11.23
2023-01-10T10:28:37.289Z,11.24
2023-01-10T10:29:34.529Z,11.25
2023-01-10T10:30:34.536Z,11.22
2023-01-10T10:31:34.542Z,11.20
2023-01-10T10:32:34.498Z,11.01
2023-01-10T10:33:34.514Z,10.90
2023-01-10T10:34:34.529Z,10.77
2023-01-10T10:35:34.537Z,10.64
2023-01-10T10:36:34.534Z,10.57
2023-01-10T10:37:34.538Z,10.62
2023-01-10T10:39:34.487Z,10.61
2023-01-10T10:40:34.548Z,10.64
2023-01-10T10:41:34.540Z,10.66
2023-01-10T10:42:34.544Z,10.69
2023-01-10T10:44:34.543Z,10.65
2023-01-10T10:45:34.623Z,10.60
2023-01-10T10:46:34.559Z,10.53
2023-01-10T10:47:34.555Z,10.37
2023-01-10T10:48:34.591Z,10.32
2023-01-10T10:49:34.550Z,10.26
2023-01-10T10:50:34.572Z,10.18
2023-01-10T10:51:34.569Z,10.10
2023-01-10T10:52:34.617Z,10.06
2023-01-10T10:53:34.745Z,9.90
2023-01-10T10:54:34.569Z,9.70
2023-01-10T10:55:34.572Z,9.56
2023-01-10T10:56:34.600Z,9.48
2023-01-10T10:57:34.538Z,9.35
2023-01-10T10:58:34.532Z,9.19
2023-01-10T10:59:34.568Z,9.14
2023-01-10T11:00:34.692Z,9.11
2023-01-10T11:01:34.742Z,9.13
2023-01-10T11:02:34.552Z,9.09
2023-01-10T11:03:34.557Z,9.07
2023-01-10T11:04:34.629Z,9.06
2023-01-10T11:05:34.574Z,9.10
2023-01-10T11:06:34.590Z,9.15
2023-01-10T11:07:34.633Z,9.21
2023-01-10T11:08:34.619Z,9.28
2023-01-10T11:09:34.684Z,9.39
2023-01-10T11:10:34.622Z,9.42
2023-01-10T11:11:34.631Z,9.38
2023-01-10T11:13:34.634Z,9.39
2023-01-10T11:14:34.608Z,9.45
2023-01-10T11:15:34.630Z,9.52
2023-01-10T11:16:34.663Z,9.55
2023-01-10T11:17:34.668Z,9.51
2023-01-10T11:18:34.603Z,9.46
2023-01-10T11:19:34.631Z,9.43
2023-01-10T11:20:34.928Z,9.39
2023-01-10T11:21:34.650Z,9.43
2023-01-10T11:22:34.643Z,9.52
2023-01-10T11:23:34.636Z,9.57
2023-01-10T11:24:34.638Z,9.55
2023-01-10T11:25:34.675Z,9.62
2023-01-10T11:26:34.686Z,9.57
2023-01-10T11:27:34.642Z,9.59
2023-01-10T11:28:34.676Z,9.63
2023-01-10T11:29:34.672Z,9.71
2023-01-10T11:30:34.655Z,9.68
2023-01-10T11:31:34.725Z,9.58
2023-01-10T11:32:34.681Z,9.45
2023-01-10T11:34:34.670Z,9.40
2023-01-10T11:35:34.667Z,9.39
2023-01-10T11:36:34.666Z,9.40
2023-01-10T11:37:34.873Z,9.38
2023-01-10T11:39:34.683Z,9.43
2023-01-10T11:40:34.645Z,9.45
2023-01-10T11:41:34.729Z,9.44
2023-01-10T11:42:34.673Z,9.43
2023-01-10T11:43:34.732Z,9.40
2023-01-10T11:44:34.693Z,9.42
2023-01-10T11:45:34.797Z,9.44
2023-01-10T11:46:34.724Z,9.52
2023-01-10T11:47:37.978Z,9.57
2023-01-10T11:49:03.670Z,9.51
2023-01-10T11:49:34.727Z,9.48
2023-01-10T11:50:34.710Z,9.50
2023-01-10T11:51:34.725Z,9.48
2023-01-10T11:53:34.677Z,9.44
2023-01-10T11:54:35.064Z,9.41
2023-01-10T11:55:34.671Z,9.37
2023-01-10T11:56:34.726Z,9.32
2023-01-10T11:57:34.720Z,9.25
2023-01-10T11:58:34.723Z,9.16
2023-01-10T11:59:34.746Z,9.10
2023-01-10T12:00:34.718Z,9.08
2023-01-10T12:01:34.835Z,9.11
2023-01-10T12:02:34.848Z,9.17
2023-01-10T12:04:34.690Z,9.18
2023-01-10T12:05:34.800Z,9.23
2023-01-10T12:06:34.732Z,9.29
2023-01-10T12:07:34.737Z,9.38
2023-01-10T12:08:34.707Z,9.45
2023-01-10T12:09:34.714Z,9.44
2023-01-10T12:10:34.756Z,9.45
2023-01-10T12:12:34.782Z,9.51
2023-01-10T12:13:34.763Z,9.57
2023-01-10T12:14:34.725Z,9.64
2023-01-10T12:15:34.790Z,9.59
2023-01-10T12:16:34.848Z,9.53
2023-01-10T12:17:34.731Z,9.51
2023-01-10T12:18:34.765Z,9.53
2023-01-10T12:19:34.724Z,9.54
2023-01-10T12:20:34.783Z,9.51
2023-01-10T12:21:34.792Z,9.43
2023-01-10T12:22:34.809Z,9.36
2023-01-10T12:23:34.823Z,9.32
2023-01-10T12:24:34.743Z,9.31
2023-01-10T12:25:34.799Z,9.26
2023-01-10T12:26:34.825Z,9.31
2023-01-10T12:27:34.768Z,9.32
2023-01-10T12:28:34.829Z,9.30
2023-01-10T12:29:34.894Z,9.29
2023-01-10T12:30:34.871Z,9.31
2023-01-10T12:31:34.807Z,9.36
2023-01-10T12:33:34.803Z,9.39
2023-01-10T12:34:34.820Z,9.43
2023-01-10T12:35:34.831Z,9.46
2023-01-10T12:36:34.841Z,9.49
2023-01-10T12:37:34.768Z,9.51
2023-01-10T12:38:34.778Z,9.52
2023-01-10T12:39:34.792Z,9.51
2023-01-10T12:40:34.813Z,9.44
2023-01-10T12:41:34.823Z,9.34
2023-01-10T12:42:34.787Z,9.31
2023-01-10T12:43:34.836Z,9.29
2023-01-10T12:44:34.844Z,9.15
2023-01-10T12:45:34.842Z,9.10
2023-01-10T12:47:04.807Z,9.08
2023-01-10T12:47:34.914Z,9.02
2023-01-10T12:48:34.801Z,8.95
2023-01-10T12:49:34.889Z,9.00
2023-01-10T12:50:34.850Z,8.98
2023-01-10T12:51:34.854Z,8.95
2023-01-10T12:52:34.889Z,8.84
2023-01-10T12:54:34.869Z,8.82
2023-01-10T12:55:34.893Z,8.80
2023-01-10T12:56:34.871Z,8.82
2023-01-10T12:57:35.246Z,8.88
2023-01-10T12:58:34.841Z,8.94
2023-01-10T12:59:37.700Z,8.78
2023-01-10T13:00:40.609Z,8.79
2023-01-10T13:01:35.037Z,8.75
2023-01-10T13:02:34.963Z,8.73
2023-01-10T13:03:34.894Z,8.68
2023-01-10T13:04:34.841Z,8.69
2023-01-10T13:05:34.895Z,8.73
2023-01-10T13:06:34.855Z,8.78
2023-01-10T13:07:34.861Z,8.83
2023-01-10T13:08:34.848Z,8.79
2023-01-10T13:09:34.870Z,8.76
2023-01-10T13:10:34.905Z,8.77
2023-01-10T13:11:34.864Z,8.64
2023-01-10T13:12:34.874Z,8.62
2023-01-10T13:13:34.872Z,8.65
2023-01-10T13:14:36.368Z,8.68
2023-01-10T13:15:34.914Z,8.74
2023-01-10T13:16:34.876Z,8.78
2023-01-10T13:17:34.877Z,8.83
2023-01-10T13:18:35.025Z,8.73
2023-01-10T13:19:34.919Z,8.76
2023-01-10T13:20:34.951Z,8.78
2023-01-10T13:21:34.892Z,8.72
2023-01-10T13:22:34.893Z,8.60
2023-01-10T13:23:34.916Z,8.61
2023-01-10T13:24:34.915Z,8.56
2023-01-10T13:26:34.932Z,8.60
2023-01-10T13:27:34.972Z,8.68
2023-01-10T13:28:34.910Z,8.74
2023-01-10T13:29:34.922Z,8.76
2023-01-10T13:30:34.933Z,8.82
2023-01-10T13:31:34.975Z,8.80
2023-01-10T13:32:34.933Z,8.79
2023-01-10T13:33:34.923Z,8.81
2023-01-10T13:34:34.919Z,8.80
2023-01-10T13:35:34.936Z,8.68
2023-01-10T13:36:34.931Z,8.63
2023-01-10T13:37:35.120Z,8.49
2023-01-10T13:39:35.006Z,8.53
2023-01-10T13:40:34.932Z,8.55
2023-01-10T13:41:34.932Z,8.58
2023-01-10T13:42:34.931Z,8.55
2023-01-10T13:43:35.003Z,8.45
2023-01-10T13:44:35.002Z,8.46
2023-01-10T13:45:34.951Z,8.49
2023-01-10T13:46:35.062Z,8.53
2023-01-10T13:47:34.999Z,8.54
2023-01-10T13:48:34.986Z,8.64
2023-01-10T13:49:35.022Z,8.69
2023-01-10T13:50:34.949Z,8.72
2023-01-10T13:51:35.018Z,8.75
2023-01-10T13:52:35.050Z,8.81
2023-01-10T13:53:34.988Z,8.86
2023-01-10T13:54:35.017Z,8.82
2023-01-10T13:55:35.093Z,8.73
2023-01-10T13:56:34.974Z,8.74
2023-01-10T13:57:35.012Z,8.73
2023-01-10T13:58:35.012Z,8.75
2023-01-10T13:59:35.016Z,8.78
2023-01-10T14:01:35.163Z,8.77
2023-01-10T14:02:34.979Z,8.83
2023-01-10T14:03:35.031Z,8.91
2023-01-10T14:04:35.101Z,8.98
2023-01-10T14:05:35.022Z,9.06
2023-01-10T14:06:35.034Z,9.14
2023-01-10T14:07:35.083Z,9.23
2023-01-10T14:08:35.070Z,9.31
2023-01-10T14:09:35.106Z,9.38
2023-01-10T14:10:35.049Z,9.41
2023-01-10T14:11:35.055Z,9.44
2023-01-10T14:12:35.045Z,9.47
2023-01-10T14:13:35.096Z,9.48
2023-01-10T14:14:35.005Z,9.50
2023-01-10T14:15:35.040Z,9.46
2023-01-10T14:16:35.046Z,9.41
2023-01-10T14:17:35.076Z,9.43
2023-01-10T14:18:35.063Z,9.46
2023-01-10T14:19:35.085Z,9.49
2023-01-10T14:20:35.091Z,9.48
2023-01-10T14:21:35.101Z,9.47
2023-01-10T14:22:35.087Z,9.44
2023-01-10T14:24:35.085Z,9.46